sensor_id;sensor_type;location;lat;lon;timestamp;P1;durP1;ratioP1;P2;durP2;ratioP2
41881;SDS011;27562;47.524;12.404;2023-07-29T00:02:08;1.95;;;1.10;;
41881;SDS011;27562;47.524;12.404;2023-07-29T00:04:33;2.42;;;1.52;;
41881;SDS011;27562;47.524;12.404;2023-07-29T00:06:59;2.20;;;1.15;;
41881;SDS011;27562;47.524;12.404;2023-07-29T00:09:25;3.10;;;1.42;;
41881;SDS011;27562;47.524;12.404;2023-07-29T00:11:50;2.42;;;1.25;;
41881;SDS011;27562;47.524;12.404;2023-07-29T00:14:16;3.15;;;1.40;;
41881;SDS011;27562;47.524;12.404;2023-07-29T00:16:41;4.35;;;1.30;;
41881;SDS011;27562;47.524;12.404;2023-07-29T00:19:08;3.33;;;1.65;;
41881;SDS011;27562;47.524;12.404;2023-07-29T00:21:33;2.58;;;1.50;;
41881;SDS011;27562;47.524;12.404;2023-07-29T00:23:59;3.00;;;1.60;;
41881;SDS011;27562;47.524;12.404;2023-07-29T00:26:26;2.80;;;1.55;;
41881;SDS011;27562;47.524;12.404;2023-07-29T00:28:54;2.67;;;1.60;;
41881;SDS011;27562;47.524;12.404;2023-07-29T00:31:20;3.55;;;1.70;;
41881;SDS011;27562;47.524;12.404;2023-07-29T00:33:46;2.53;;;1.70;;
41881;SDS011;27562;47.524;12.404;2023-07-29T00:36:11;4.28;;;1.80;;
41881;SDS011;27562;47.524;12.404;2023-07-29T00:38:37;2.58;;;1.60;;
41881;SDS011;27562;47.524;12.404;2023-07-29T00:41:02;2.35;;;1.55;;
41881;SDS011;27562;47.524;12.404;2023-07-29T00:43:28;2.88;;;1.63;;
41881;SDS011;27562;47.524;12.404;2023-07-29T00:45:54;2.22;;;1.38;;
41881;SDS011;27562;47.524;12.404;2023-07-29T00:48:22;2.53;;;1.60;;
41881;SDS011;27562;47.524;12.404;2023-07-29T00:50:48;4.28;;;1.70;;
41881;SDS011;27562;47.524;12.404;2023-07-29T00:53:14;2.97;;;1.83;;
41881;SDS011;27562;47.524;12.404;2023-07-29T00:55:40;2.97;;;1.45;;
41881;SDS011;27562;47.524;12.404;2023-07-29T00:58:06;2.30;;;1.38;;
41881;SDS011;27562;47.524;12.404;2023-07-29T01:00:32;2.45;;;1.55;;
41881;SDS011;27562;47.524;12.404;2023-07-29T01:02:58;4.00;;;1.52;;
41881;SDS011;27562;47.524;12.404;2023-07-29T01:05:24;2.90;;;1.52;;
41881;SDS011;27562;47.524;12.404;2023-07-29T01:08:18;2.85;;;1.40;;
41881;SDS011;27562;47.524;12.404;2023-07-29T01:13:29;2.58;;;1.35;;
41881;SDS011;27562;47.524;12.404;2023-07-29T01:16:10;3.00;;;1.63;;
41881;SDS011;27562;47.524;12.404;2023-07-29T01:18:47;2.58;;;1.55;;
41881;SDS011;27562;47.524;12.404;2023-07-29T01:21:15;3.35;;;1.80;;
41881;SDS011;27562;47.524;12.404;2023-07-29T01:23:42;2.88;;;1.40;;
41881;SDS011;27562;47.524;12.404;2023-07-29T01:26:07;2.30;;;1.40;;
41881;SDS011;27562;47.524;12.404;2023-07-29T01:28:33;2.45;;;1.50;;
41881;SDS011;27562;47.524;12.404;2023-07-29T01:31:23;3.17;;;1.75;;
41881;SDS011;27562;47.524;12.404;2023-07-29T01:33:53;2.70;;;1.60;;
41881;SDS011;27562;47.524;12.404;2023-07-29T01:36:23;2.50;;;1.50;;
41881;SDS011;27562;47.524;12.404;2023-07-29T01:38:53;3.20;;;1.63;;
41881;SDS011;27562;47.524;12.404;2023-07-29T01:41:21;3.58;;;1.67;;
41881;SDS011;27562;47.524;12.404;2023-07-29T01:43:47;3.35;;;1.90;;
41881;SDS011;27562;47.524;12.404;2023-07-29T01:46:14;3.95;;;1.50;;
41881;SDS011;27562;47.524;12.404;2023-07-29T01:48:40;4.57;;;1.55;;
41881;SDS011;27562;47.524;12.404;2023-07-29T01:51:06;2.20;;;1.30;;
41881;SDS011;27562;47.524;12.404;2023-07-29T01:53:32;3.70;;;1.50;;
41881;SDS011;27562;47.524;12.404;2023-07-29T01:55:58;1.88;;;1.02;;
41881;SDS011;27562;47.524;12.404;2023-07-29T01:58:24;3.03;;;1.42;;
41881;SDS011;27562;47.524;12.404;2023-07-29T02:00:50;3.92;;;1.60;;
41881;SDS011;27562;47.524;12.404;2023-07-29T02:03:16;3.80;;;1.55;;
41881;SDS011;27562;47.524;12.404;2023-07-29T02:05:41;2.67;;;1.40;;
41881;SDS011;27562;47.524;12.404;2023-07-29T02:08:08;4.15;;;1.60;;
41881;SDS011;27562;47.524;12.404;2023-07-29T02:10:35;3.17;;;1.60;;
41881;SDS011;27562;47.524;12.404;2023-07-29T02:13:00;3.38;;;1.88;;
41881;SDS011;27562;47.524;12.404;2023-07-29T02:15:26;7.10;;;4.63;;
41881;SDS011;27562;47.524;12.404;2023-07-29T02:17:52;6.88;;;6.00;;
41881;SDS011;27562;47.524;12.404;2023-07-29T02:20:18;6.80;;;6.10;;
41881;SDS011;27562;47.524;12.404;2023-07-29T02:22:44;7.85;;;6.35;;
41881;SDS011;27562;47.524;12.404;2023-07-29T02:25:10;6.13;;;5.53;;
41881;SDS011;27562;47.524;12.404;2023-07-29T02:27:36;5.47;;;4.00;;
41881;SDS011;27562;47.524;12.404;2023-07-29T02:30:02;3.78;;;2.97;;
41881;SDS011;27562;47.524;12.404;2023-07-29T02:32:28;3.78;;;2.03;;
41881;SDS011;27562;47.524;12.404;2023-07-29T02:34:54;4.45;;;2.00;;
41881;SDS011;27562;47.524;12.404;2023-07-29T02:37:20;4.03;;;1.70;;
41881;SDS011;27562;47.524;12.404;2023-07-29T02:39:45;3.70;;;1.38;;
41881;SDS011;27562;47.524;12.404;2023-07-29T02:42:11;3.17;;;1.60;;
41881;SDS011;27562;47.524;12.404;2023-07-29T02:44:37;2.33;;;1.70;;
41881;SDS011;27562;47.524;12.404;2023-07-29T02:47:02;2.85;;;1.73;;
41881;SDS011;27562;47.524;12.404;2023-07-29T02:49:28;2.47;;;1.65;;
41881;SDS011;27562;47.524;12.404;2023-07-29T02:51:54;3.72;;;2.17;;
41881;SDS011;27562;47.524;12.404;2023-07-29T02:54:20;2.10;;;1.42;;
41881;SDS011;27562;47.524;12.404;2023-07-29T02:56:46;3.50;;;1.50;;
41881;SDS011;27562;47.524;12.404;2023-07-29T02:59:12;3.00;;;1.77;;
41881;SDS011;27562;47.524;12.404;2023-07-29T03:01:38;3.55;;;1.73;;
41881;SDS011;27562;47.524;12.404;2023-07-29T03:04:03;3.72;;;1.30;;
41881;SDS011;27562;47.524;12.404;2023-07-29T03:06:29;2.65;;;1.40;;
41881;SDS011;27562;47.524;12.404;2023-07-29T03:08:55;2.85;;;1.30;;
41881;SDS011;27562;47.524;12.404;2023-07-29T03:11:20;2.75;;;1.70;;
41881;SDS011;27562;47.524;12.404;2023-07-29T03:13:46;2.50;;;1.60;;
41881;SDS011;27562;47.524;12.404;2023-07-29T03:16:15;2.50;;;1.83;;
41881;SDS011;27562;47.524;12.404;2023-07-29T03:18:42;3.08;;;1.80;;
41881;SDS011;27562;47.524;12.404;2023-07-29T03:21:08;2.63;;;1.60;;
41881;SDS011;27562;47.524;12.404;2023-07-29T03:23:35;5.57;;;1.73;;
41881;SDS011;27562;47.524;12.404;2023-07-29T03:26:02;2.53;;;1.35;;
41881;SDS011;27562;47.524;12.404;2023-07-29T03:28:34;3.97;;;1.50;;
41881;SDS011;27562;47.524;12.404;2023-07-29T03:31:00;2.55;;;1.48;;
41881;SDS011;27562;47.524;12.404;2023-07-29T03:33:27;4.65;;;1.70;;
41881;SDS011;27562;47.524;12.404;2023-07-29T03:35:53;6.00;;;2.75;;
41881;SDS011;27562;47.524;12.404;2023-07-29T03:38:19;4.65;;;2.00;;
41881;SDS011;27562;47.524;12.404;2023-07-29T03:40:44;3.83;;;1.52;;
41881;SDS011;27562;47.524;12.404;2023-07-29T03:43:10;4.20;;;1.90;;
41881;SDS011;27562;47.524;12.404;2023-07-29T03:45:36;4.00;;;1.80;;
41881;SDS011;27562;47.524;12.404;2023-07-29T03:48:03;2.83;;;1.70;;
41881;SDS011;27562;47.524;12.404;2023-07-29T03:50:29;3.03;;;1.60;;
41881;SDS011;27562;47.524;12.404;2023-07-29T03:52:55;3.25;;;1.88;;
41881;SDS011;27562;47.524;12.404;2023-07-29T03:55:21;3.17;;;2.00;;
41881;SDS011;27562;47.524;12.404;2023-07-29T03:57:47;4.90;;;1.50;;
41881;SDS011;27562;47.524;12.404;2023-07-29T04:00:13;2.58;;;1.73;;
41881;SDS011;27562;47.524;12.404;2023-07-29T04:02:39;3.08;;;1.40;;
41881;SDS011;27562;47.524;12.404;2023-07-29T04:05:05;4.55;;;2.03;;
41881;SDS011;27562;47.524;12.404;2023-07-29T04:07:33;6.25;;;2.08;;
41881;SDS011;27562;47.524;12.404;2023-07-29T04:10:02;4.35;;;1.80;;
41881;SDS011;27562;47.524;12.404;2023-07-29T04:12:29;4.60;;;2.22;;
41881;SDS011;27562;47.524;12.404;2023-07-29T04:14:55;6.57;;;2.83;;
41881;SDS011;27562;47.524;12.404;2023-07-29T04:17:21;4.10;;;2.22;;
41881;SDS011;27562;47.524;12.404;2023-07-29T04:19:47;4.15;;;2.20;;
41881;SDS011;27562;47.524;12.404;2023-07-29T04:22:12;3.00;;;1.85;;
41881;SDS011;27562;47.524;12.404;2023-07-29T04:24:39;3.45;;;1.70;;
41881;SDS011;27562;47.524;12.404;2023-07-29T04:27:05;6.55;;;2.00;;
41881;SDS011;27562;47.524;12.404;2023-07-29T04:29:31;3.85;;;2.10;;
41881;SDS011;27562;47.524;12.404;2023-07-29T04:31:56;4.25;;;2.28;;
41881;SDS011;27562;47.524;12.404;2023-07-29T04:34:22;3.42;;;1.92;;
41881;SDS011;27562;47.524;12.404;2023-07-29T04:36:48;3.28;;;1.83;;
41881;SDS011;27562;47.524;12.404;2023-07-29T04:39:13;3.00;;;1.83;;
41881;SDS011;27562;47.524;12.404;2023-07-29T04:41:39;4.15;;;1.70;;
41881;SDS011;27562;47.524;12.404;2023-07-29T04:44:06;3.40;;;1.63;;
41881;SDS011;27562;47.524;12.404;2023-07-29T04:46:32;3.90;;;1.98;;
41881;SDS011;27562;47.524;12.404;2023-07-29T04:48:58;4.07;;;2.13;;
41881;SDS011;27562;47.524;12.404;2023-07-29T04:51:23;2.83;;;1.88;;
41881;SDS011;27562;47.524;12.404;2023-07-29T04:53:49;3.90;;;1.80;;
41881;SDS011;27562;47.524;12.404;2023-07-29T04:56:15;2.78;;;1.80;;
41881;SDS011;27562;47.524;12.404;2023-07-29T04:58:41;3.65;;;1.80;;
41881;SDS011;27562;47.524;12.404;2023-07-29T05:01:06;4.43;;;2.08;;
41881;SDS011;27562;47.524;12.404;2023-07-29T05:03:32;4.43;;;2.10;;
41881;SDS011;27562;47.524;12.404;2023-07-29T05:05:58;4.30;;;2.22;;
41881;SDS011;27562;47.524;12.404;2023-07-29T05:08:27;3.72;;;1.67;;
41881;SDS011;27562;47.524;12.404;2023-07-29T05:10:53;3.55;;;1.50;;
41881;SDS011;27562;47.524;12.404;2023-07-29T05:13:20;2.35;;;1.50;;
41881;SDS011;27562;47.524;12.404;2023-07-29T05:15:48;2.47;;;1.30;;
41881;SDS011;27562;47.524;12.404;2023-07-29T05:18:15;3.03;;;1.83;;
41881;SDS011;27562;47.524;12.404;2023-07-29T05:20:41;2.95;;;1.70;;
41881;SDS011;27562;47.524;12.404;2023-07-29T05:23:07;2.95;;;1.65;;
41881;SDS011;27562;47.524;12.404;2023-07-29T05:25:33;3.30;;;1.70;;
41881;SDS011;27562;47.524;12.404;2023-07-29T05:28:02;3.50;;;1.90;;
41881;SDS011;27562;47.524;12.404;2023-07-29T05:30:28;5.07;;;1.98;;
41881;SDS011;27562;47.524;12.404;2023-07-29T05:32:58;3.47;;;1.77;;
41881;SDS011;27562;47.524;12.404;2023-07-29T05:35:25;3.03;;;1.75;;
41881;SDS011;27562;47.524;12.404;2023-07-29T05:37:50;3.50;;;2.03;;
41881;SDS011;27562;47.524;12.404;2023-07-29T05:40:16;2.60;;;1.70;;
41881;SDS011;27562;47.524;12.404;2023-07-29T05:42:42;3.13;;;1.90;;
41881;SDS011;27562;47.524;12.404;2023-07-29T05:45:09;2.97;;;1.90;;
41881;SDS011;27562;47.524;12.404;2023-07-29T05:47:35;2.75;;;1.95;;
41881;SDS011;27562;47.524;12.404;2023-07-29T05:50:01;2.72;;;1.70;;
41881;SDS011;27562;47.524;12.404;2023-07-29T05:52:29;3.00;;;1.60;;
41881;SDS011;27562;47.524;12.404;2023-07-29T05:54:55;2.80;;;1.70;;
41881;SDS011;27562;47.524;12.404;2023-07-29T05:57:21;3.33;;;1.83;;
41881;SDS011;27562;47.524;12.404;2023-07-29T05:59:47;3.97;;;1.80;;
41881;SDS011;27562;47.524;12.404;2023-07-29T06:02:13;5.13;;;1.95;;
41881;SDS011;27562;47.524;12.404;2023-07-29T06:04:39;3.35;;;2.10;;
41881;SDS011;27562;47.524;12.404;2023-07-29T06:07:05;2.70;;;1.73;;
41881;SDS011;27562;47.524;12.404;2023-07-29T06:09:31;2.78;;;1.63;;
41881;SDS011;27562;47.524;12.404;2023-07-29T06:11:56;3.28;;;1.90;;
41881;SDS011;27562;47.524;12.404;2023-07-29T06:14:22;4.00;;;1.88;;
41881;SDS011;27562;47.524;12.404;2023-07-29T06:16:48;3.05;;;1.80;;
41881;SDS011;27562;47.524;12.404;2023-07-29T06:19:13;3.83;;;1.98;;
41881;SDS011;27562;47.524;12.404;2023-07-29T06:21:39;4.57;;;2.20;;
41881;SDS011;27562;47.524;12.404;2023-07-29T06:24:05;3.45;;;1.80;;
41881;SDS011;27562;47.524;12.404;2023-07-29T06:26:30;2.78;;;1.80;;
41881;SDS011;27562;47.524;12.404;2023-07-29T06:28:56;3.67;;;2.25;;
41881;SDS011;27562;47.524;12.404;2023-07-29T06:31:22;3.38;;;2.20;;
41881;SDS011;27562;47.524;12.404;2023-07-29T06:33:47;3.67;;;2.40;;
41881;SDS011;27562;47.524;12.404;2023-07-29T06:36:13;4.35;;;2.33;;
41881;SDS011;27562;47.524;12.404;2023-07-29T06:38:39;3.13;;;1.95;;
41881;SDS011;27562;47.524;12.404;2023-07-29T06:41:06;4.05;;;2.45;;
41881;SDS011;27562;47.524;12.404;2023-07-29T06:43:31;3.70;;;2.10;;
41881;SDS011;27562;47.524;12.404;2023-07-29T06:45:57;3.85;;;2.45;;
41881;SDS011;27562;47.524;12.404;2023-07-29T06:48:22;5.18;;;2.92;;
41881;SDS011;27562;47.524;12.404;2023-07-29T06:50:48;4.13;;;2.20;;
41881;SDS011;27562;47.524;12.404;2023-07-29T06:53:15;5.18;;;2.63;;
41881;SDS011;27562;47.524;12.404;2023-07-29T06:55:41;4.32;;;2.60;;
41881;SDS011;27562;47.524;12.404;2023-07-29T06:58:08;3.70;;;2.30;;
41881;SDS011;27562;47.524;12.404;2023-07-29T07:00:33;3.65;;;2.38;;
41881;SDS011;27562;47.524;12.404;2023-07-29T07:02:59;6.18;;;2.50;;
41881;SDS011;27562;47.524;12.404;2023-07-29T07:05:25;3.80;;;2.38;;
41881;SDS011;27562;47.524;12.404;2023-07-29T07:07:50;5.32;;;3.63;;
41881;SDS011;27562;47.524;12.404;2023-07-29T07:10:16;7.50;;;4.40;;
41881;SDS011;27562;47.524;12.404;2023-07-29T07:12:41;5.50;;;3.92;;
41881;SDS011;27562;47.524;12.404;2023-07-29T07:15:07;5.90;;;3.60;;
41881;SDS011;27562;47.524;12.404;2023-07-29T07:17:33;5.60;;;3.90;;
41881;SDS011;27562;47.524;12.404;2023-07-29T07:19:59;4.80;;;3.25;;
41881;SDS011;27562;47.524;12.404;2023-07-29T07:22:24;4.72;;;3.22;;
41881;SDS011;27562;47.524;12.404;2023-07-29T07:24:50;4.93;;;3.00;;
41881;SDS011;27562;47.524;12.404;2023-07-29T07:27:16;7.63;;;3.80;;
41881;SDS011;27562;47.524;12.404;2023-07-29T07:29:41;5.05;;;3.28;;
41881;SDS011;27562;47.524;12.404;2023-07-29T07:32:07;4.00;;;2.83;;
41881;SDS011;27562;47.524;12.404;2023-07-29T07:34:33;5.18;;;3.47;;
41881;SDS011;27562;47.524;12.404;2023-07-29T07:36:59;4.68;;;3.10;;
41881;SDS011;27562;47.524;12.404;2023-07-29T07:39:25;4.57;;;3.30;;
41881;SDS011;27562;47.524;12.404;2023-07-29T07:41:51;4.63;;;3.30;;
41881;SDS011;27562;47.524;12.404;2023-07-29T07:44:17;5.20;;;3.45;;
41881;SDS011;27562;47.524;12.404;2023-07-29T07:46:44;5.32;;;3.88;;
41881;SDS011;27562;47.524;12.404;2023-07-29T07:49:10;6.20;;;3.85;;
41881;SDS011;27562;47.524;12.404;2023-07-29T07:51:36;7.82;;;4.38;;
41881;SDS011;27562;47.524;12.404;2023-07-29T07:54:01;5.63;;;3.60;;
41881;SDS011;27562;47.524;12.404;2023-07-29T07:56:27;4.57;;;3.20;;
41881;SDS011;27562;47.524;12.404;2023-07-29T07:58:53;4.05;;;3.03;;
41881;SDS011;27562;47.524;12.404;2023-07-29T08:01:18;3.80;;;2.75;;
41881;SDS011;27562;47.524;12.404;2023-07-29T08:03:44;3.85;;;2.63;;
41881;SDS011;27562;47.524;12.404;2023-07-29T08:06:10;5.35;;;3.13;;
41881;SDS011;27562;47.524;12.404;2023-07-29T08:08:36;3.35;;;2.20;;
41881;SDS011;27562;47.524;12.404;2023-07-29T08:11:01;3.30;;;2.30;;
41881;SDS011;27562;47.524;12.404;2023-07-29T08:13:27;3.35;;;2.10;;
41881;SDS011;27562;47.524;12.404;2023-07-29T08:15:53;3.05;;;2.13;;
41881;SDS011;27562;47.524;12.404;2023-07-29T08:18:18;3.83;;;2.50;;
41881;SDS011;27562;47.524;12.404;2023-07-29T08:20:54;3.40;;;2.42;;
41881;SDS011;27562;47.524;12.404;2023-07-29T08:23:24;3.63;;;2.40;;
41881;SDS011;27562;47.524;12.404;2023-07-29T08:25:54;5.13;;;2.10;;
41881;SDS011;27562;47.524;12.404;2023-07-29T08:28:24;3.13;;;1.80;;
41881;SDS011;27562;47.524;12.404;2023-07-29T08:30:50;2.88;;;1.70;;
41881;SDS011;27562;47.524;12.404;2023-07-29T08:33:15;8.80;;;2.42;;
41881;SDS011;27562;47.524;12.404;2023-07-29T08:35:41;2.33;;;1.30;;
41881;SDS011;27562;47.524;12.404;2023-07-29T08:38:07;3.88;;;1.67;;
41881;SDS011;27562;47.524;12.404;2023-07-29T08:40:33;2.60;;;1.50;;
41881;SDS011;27562;47.524;12.404;2023-07-29T08:43:01;3.55;;;1.60;;
41881;SDS011;27562;47.524;12.404;2023-07-29T08:45:34;3.38;;;1.50;;
41881;SDS011;27562;47.524;12.404;2023-07-29T08:48:06;3.42;;;1.67;;
41881;SDS011;27562;47.524;12.404;2023-07-29T08:50:35;3.10;;;1.55;;
41881;SDS011;27562;47.524;12.404;2023-07-29T08:53:03;3.90;;;1.60;;
41881;SDS011;27562;47.524;12.404;2023-07-29T08:55:30;4.10;;;1.73;;
41881;SDS011;27562;47.524;12.404;2023-07-29T08:57:57;2.65;;;1.50;;
41881;SDS011;27562;47.524;12.404;2023-07-29T09:00:25;2.50;;;1.55;;
41881;SDS011;27562;47.524;12.404;2023-07-29T09:02:50;5.10;;;2.83;;
41881;SDS011;27562;47.524;12.404;2023-07-29T09:05:16;3.55;;;1.90;;
41881;SDS011;27562;47.524;12.404;2023-07-29T09:07:42;3.22;;;1.80;;
41881;SDS011;27562;47.524;12.404;2023-07-29T09:10:10;2.92;;;1.88;;
41881;SDS011;27562;47.524;12.404;2023-07-29T09:12:38;3.28;;;2.15;;
41881;SDS011;27562;47.524;12.404;2023-07-29T09:15:04;2.75;;;1.58;;
41881;SDS011;27562;47.524;12.404;2023-07-29T09:17:33;3.22;;;1.88;;
41881;SDS011;27562;47.524;12.404;2023-07-29T09:19:59;2.85;;;1.60;;
41881;SDS011;27562;47.524;12.404;2023-07-29T09:22:26;3.03;;;1.50;;
41881;SDS011;27562;47.524;12.404;2023-07-29T09:24:52;3.33;;;1.63;;
41881;SDS011;27562;47.524;12.404;2023-07-29T09:27:25;3.20;;;1.88;;
41881;SDS011;27562;47.524;12.404;2023-07-29T09:29:52;2.78;;;1.48;;
41881;SDS011;27562;47.524;12.404;2023-07-29T09:32:20;2.25;;;1.33;;
41881;SDS011;27562;47.524;12.404;2023-07-29T09:34:47;2.65;;;1.60;;
41881;SDS011;27562;47.524;12.404;2023-07-29T09:37:23;2.58;;;1.58;;
41881;SDS011;27562;47.524;12.404;2023-07-29T09:39:49;2.60;;;1.42;;
41881;SDS011;27562;47.524;12.404;2023-07-29T09:42:19;2.80;;;1.50;;
41881;SDS011;27562;47.524;12.404;2023-07-29T09:44:45;2.25;;;1.45;;
41881;SDS011;27562;47.524;12.404;2023-07-29T09:47:18;2.60;;;1.80;;
41881;SDS011;27562;47.524;12.404;2023-07-29T09:49:46;2.17;;;1.48;;
41881;SDS011;27562;47.524;12.404;2023-07-29T09:52:13;2.78;;;1.70;;
41881;SDS011;27562;47.524;12.404;2023-07-29T09:54:41;2.47;;;1.48;;
41881;SDS011;27562;47.524;12.404;2023-07-29T09:57:08;3.80;;;1.60;;
41881;SDS011;27562;47.524;12.404;2023-07-29T09:59:35;3.63;;;1.67;;
41881;SDS011;27562;47.524;12.404;2023-07-29T10:02:01;2.13;;;1.40;;
41881;SDS011;27562;47.524;12.404;2023-07-29T10:04:27;2.92;;;1.50;;
41881;SDS011;27562;47.524;12.404;2023-07-29T10:06:54;2.45;;;1.20;;
41881;SDS011;27562;47.524;12.404;2023-07-29T10:09:20;2.40;;;1.50;;
41881;SDS011;27562;47.524;12.404;2023-07-29T10:11:46;2.85;;;1.65;;
41881;SDS011;27562;47.524;12.404;2023-07-29T10:14:15;3.42;;;1.90;;
41881;SDS011;27562;47.524;12.404;2023-07-29T10:16:42;3.10;;;2.10;;
41881;SDS011;27562;47.524;12.404;2023-07-29T10:19:11;3.22;;;2.38;;
41881;SDS011;27562;47.524;12.404;2023-07-29T10:21:39;3.38;;;2.08;;
41881;SDS011;27562;47.524;12.404;2023-07-29T10:24:16;3.17;;;1.60;;
41881;SDS011;27562;47.524;12.404;2023-07-29T10:26:53;3.45;;;2.03;;
41881;SDS011;27562;47.524;12.404;2023-07-29T10:29:24;2.80;;;1.73;;
41881;SDS011;27562;47.524;12.404;2023-07-29T10:31:53;3.63;;;1.75;;
41881;SDS011;27562;47.524;12.404;2023-07-29T10:34:22;2.63;;;1.60;;
41881;SDS011;27562;47.524;12.404;2023-07-29T10:36:49;2.80;;;1.65;;
41881;SDS011;27562;47.524;12.404;2023-07-29T10:39:16;3.63;;;1.95;;
41881;SDS011;27562;47.524;12.404;2023-07-29T10:41:58;3.17;;;1.63;;
41881;SDS011;27562;47.524;12.404;2023-07-29T10:47:15;2.90;;;1.73;;
41881;SDS011;27562;47.524;12.404;2023-07-29T10:49:53;2.28;;;1.50;;
41881;SDS011;27562;47.524;12.404;2023-07-29T10:55:35;3.47;;;2.35;;
41881;SDS011;27562;47.524;12.404;2023-07-29T11:00:34;2.83;;;1.83;;
41881;SDS011;27562;47.524;12.404;2023-07-29T11:03:01;3.83;;;1.90;;
41881;SDS011;27562;47.524;12.404;2023-07-29T11:13:36;3.28;;;2.42;;
41881;SDS011;27562;47.524;12.404;2023-07-29T11:16:03;3.13;;;2.15;;
41881;SDS011;27562;47.524;12.404;2023-07-29T11:18:33;3.60;;;2.20;;
41881;SDS011;27562;47.524;12.404;2023-07-29T11:21:00;3.30;;;2.30;;
41881;SDS011;27562;47.524;12.404;2023-07-29T11:23:36;3.78;;;1.98;;
41881;SDS011;27562;47.524;12.404;2023-07-29T11:26:03;4.22;;;2.25;;
41881;SDS011;27562;47.524;12.404;2023-07-29T11:28:29;2.88;;;1.98;;
41881;SDS011;27562;47.524;12.404;2023-07-29T11:30:56;3.05;;;1.77;;
41881;SDS011;27562;47.524;12.404;2023-07-29T11:33:23;2.95;;;1.85;;
41881;SDS011;27562;47.524;12.404;2023-07-29T11:35:51;2.97;;;1.90;;
41881;SDS011;27562;47.524;12.404;2023-07-29T11:38:18;3.15;;;2.10;;
41881;SDS011;27562;47.524;12.404;2023-07-29T11:40:54;3.45;;;2.25;;
41881;SDS011;27562;47.524;12.404;2023-07-29T11:43:25;2.83;;;1.80;;
41881;SDS011;27562;47.524;12.404;2023-07-29T11:45:51;2.97;;;1.60;;
41881;SDS011;27562;47.524;12.404;2023-07-29T11:48:17;3.38;;;2.00;;
41881;SDS011;27562;47.524;12.404;2023-07-29T11:50:43;3.17;;;2.03;;
41881;SDS011;27562;47.524;12.404;2023-07-29T11:53:10;2.78;;;1.90;;
41881;SDS011;27562;47.524;12.404;2023-07-29T11:55:37;3.83;;;2.00;;
41881;SDS011;27562;47.524;12.404;2023-07-29T11:58:03;3.67;;;2.30;;
41881;SDS011;27562;47.524;12.404;2023-07-29T12:00:29;2.35;;;1.75;;
41881;SDS011;27562;47.524;12.404;2023-07-29T12:02:56;3.80;;;2.33;;
41881;SDS011;27562;47.524;12.404;2023-07-29T12:05:22;5.45;;;2.80;;
41881;SDS011;27562;47.524;12.404;2023-07-29T12:07:49;2.58;;;1.58;;
41881;SDS011;27562;47.524;12.404;2023-07-29T12:10:15;2.55;;;1.73;;
41881;SDS011;27562;47.524;12.404;2023-07-29T12:12:45;2.60;;;1.77;;
41881;SDS011;27562;47.524;12.404;2023-07-29T12:15:12;3.13;;;1.65;;
41881;SDS011;27562;47.524;12.404;2023-07-29T12:17:39;2.67;;;1.67;;
41881;SDS011;27562;47.524;12.404;2023-07-29T12:20:07;2.80;;;1.80;;
41881;SDS011;27562;47.524;12.404;2023-07-29T12:22:34;2.85;;;1.90;;
41881;SDS011;27562;47.524;12.404;2023-07-29T12:25:00;2.42;;;1.83;;
41881;SDS011;27562;47.524;12.404;2023-07-29T12:27:27;4.22;;;1.98;;
41881;SDS011;27562;47.524;12.404;2023-07-29T12:29:57;4.32;;;2.20;;
41881;SDS011;27562;47.524;12.404;2023-07-29T12:32:28;3.97;;;1.92;;
41881;SDS011;27562;47.524;12.404;2023-07-29T12:34:55;2.88;;;2.10;;
41881;SDS011;27562;47.524;12.404;2023-07-29T12:37:30;2.92;;;2.03;;
41881;SDS011;27562;47.524;12.404;2023-07-29T12:39:57;3.33;;;2.00;;
41881;SDS011;27562;47.524;12.404;2023-07-29T12:42:22;4.18;;;2.50;;
41881;SDS011;27562;47.524;12.404;2023-07-29T12:44:48;3.30;;;2.20;;
41881;SDS011;27562;47.524;12.404;2023-07-29T12:47:14;3.10;;;1.92;;
41881;SDS011;27562;47.524;12.404;2023-07-29T12:49:39;3.53;;;2.47;;
41881;SDS011;27562;47.524;12.404;2023-07-29T12:52:05;2.67;;;1.90;;
41881;SDS011;27562;47.524;12.404;2023-07-29T12:54:31;2.90;;;1.83;;
41881;SDS011;27562;47.524;12.404;2023-07-29T12:56:57;3.03;;;2.20;;
41881;SDS011;27562;47.524;12.404;2023-07-29T12:59:22;3.58;;;2.30;;
41881;SDS011;27562;47.524;12.404;2023-07-29T13:01:48;3.30;;;1.98;;
41881;SDS011;27562;47.524;12.404;2023-07-29T13:04:13;4.00;;;2.35;;
41881;SDS011;27562;47.524;12.404;2023-07-29T13:06:39;3.63;;;2.30;;
41881;SDS011;27562;47.524;12.404;2023-07-29T13:09:05;3.20;;;2.20;;
41881;SDS011;27562;47.524;12.404;2023-07-29T13:11:31;3.13;;;2.00;;
41881;SDS011;27562;47.524;12.404;2023-07-29T13:13:59;6.22;;;2.35;;
41881;SDS011;27562;47.524;12.404;2023-07-29T13:16:25;3.90;;;2.00;;
41881;SDS011;27562;47.524;12.404;2023-07-29T13:18:52;3.28;;;2.25;;
41881;SDS011;27562;47.524;12.404;2023-07-29T13:21:17;3.50;;;2.20;;
41881;SDS011;27562;47.524;12.404;2023-07-29T13:23:43;3.83;;;2.50;;
41881;SDS011;27562;47.524;12.404;2023-07-29T13:26:09;3.35;;;2.40;;
41881;SDS011;27562;47.524;12.404;2023-07-29T13:28:36;3.30;;;2.42;;
41881;SDS011;27562;47.524;12.404;2023-07-29T13:31:01;6.25;;;2.42;;
41881;SDS011;27562;47.524;12.404;2023-07-29T13:33:28;4.50;;;2.50;;
41881;SDS011;27562;47.524;12.404;2023-07-29T13:35:58;3.90;;;2.40;;
41881;SDS011;27562;47.524;12.404;2023-07-29T13:38:24;4.18;;;2.05;;
41881;SDS011;27562;47.524;12.404;2023-07-29T13:40:50;3.00;;;2.13;;
41881;SDS011;27562;47.524;12.404;2023-07-29T13:43:16;7.47;;;2.50;;
41881;SDS011;27562;47.524;12.404;2023-07-29T13:45:42;5.18;;;2.72;;
41881;SDS011;27562;47.524;12.404;2023-07-29T13:48:08;3.85;;;2.13;;
41881;SDS011;27562;47.524;12.404;2023-07-29T13:50:34;3.38;;;2.30;;
41881;SDS011;27562;47.524;12.404;2023-07-29T13:52:59;2.50;;;1.85;;
41881;SDS011;27562;47.524;12.404;2023-07-29T13:55:25;2.90;;;2.30;;
41881;SDS011;27562;47.524;12.404;2023-07-29T13:57:52;3.97;;;2.47;;
41881;SDS011;27562;47.524;12.404;2023-07-29T14:00:19;5.47;;;2.55;;
41881;SDS011;27562;47.524;12.404;2023-07-29T14:02:44;3.75;;;2.40;;
41881;SDS011;27562;47.524;12.404;2023-07-29T14:05:10;4.90;;;2.75;;
41881;SDS011;27562;47.524;12.404;2023-07-29T14:07:36;3.92;;;2.50;;
41881;SDS011;27562;47.524;12.404;2023-07-29T14:10:02;5.55;;;2.45;;
41881;SDS011;27562;47.524;12.404;2023-07-29T14:12:28;5.53;;;2.47;;
41881;SDS011;27562;47.524;12.404;2023-07-29T14:14:54;3.80;;;2.58;;
41881;SDS011;27562;47.524;12.404;2023-07-29T14:17:19;4.97;;;2.67;;
41881;SDS011;27562;47.524;12.404;2023-07-29T14:19:45;3.75;;;2.42;;
41881;SDS011;27562;47.524;12.404;2023-07-29T14:22:11;3.70;;;2.45;;
41881;SDS011;27562;47.524;12.404;2023-07-29T14:24:36;4.13;;;2.83;;
41881;SDS011;27562;47.524;12.404;2023-07-29T14:27:02;4.00;;;2.60;;
41881;SDS011;27562;47.524;12.404;2023-07-29T14:29:28;4.28;;;2.60;;
41881;SDS011;27562;47.524;12.404;2023-07-29T14:31:54;5.53;;;2.90;;
41881;SDS011;27562;47.524;12.404;2023-07-29T14:34:19;4.45;;;2.72;;
41881;SDS011;27562;47.524;12.404;2023-07-29T14:36:45;3.70;;;2.50;;
41881;SDS011;27562;47.524;12.404;2023-07-29T14:39:11;3.92;;;2.80;;
41881;SDS011;27562;47.524;12.404;2023-07-29T14:41:36;4.03;;;2.33;;
41881;SDS011;27562;47.524;12.404;2023-07-29T14:44:02;5.07;;;2.60;;
41881;SDS011;27562;47.524;12.404;2023-07-29T14:46:28;5.35;;;2.80;;
41881;SDS011;27562;47.524;12.404;2023-07-29T14:48:53;4.00;;;2.95;;
41881;SDS011;27562;47.524;12.404;2023-07-29T14:51:19;4.40;;;2.70;;